METAR Data
IDs: Format: Raw Decoded Include TAF

Data at: 0936 UTC 20 Sep 2018

KBDL 200851Z 04004KT 10SM SCT017 BKN024 OVC035 16/13 A3014 RMK AO2 SLP206 T01610128 51009
KBDL 200751Z 04006KT 10SM BKN019 OVC034 16/13 A3013 RMK AO2 SLP203 T01610128
KBDL 200651Z 05007KT 10SM FEW017 OVC030 17/13 A3013 RMK AO2 SLP202 T01670128
KBDL 200632Z 04006KT 10SM FEW018 OVC030 17/13 A3013 RMK AO2 T01670128
KBDL 200551Z 04005KT 10SM FEW017 OVC029 17/13 A3011 RMK AO2 SLP196 BINOVC 60000 T01670133 10194 20167 51008
KBDL 200451Z 07004KT 10SM FEW016 OVC025 17/14 A3011 RMK AO2 SLP194 T01720139 402560172
KBDL 200351Z 09004KT 10SM FEW009 OVC016 17/14 A3010 RMK AO2 DZB00E35 SLP192 P0000 T01720144
KBDL 200251Z 04004KT 10SM FEW020 BKN023 OVC037 18/14 A3009 RMK AO2 SLP188 T01780144 51024
KBDL 200243Z 04003KT 10SM BKN023 OVC037 18/14 A3009 RMK AO2 T01780144
KBDL 200207Z 06004KT 10SM BKN030 OVC035 18/14 A3008 RMK AO2 T01780144
KBDL 200151Z 07005KT 10SM SCT020 OVC029 18/14 A3007 RMK AO2 SLP182 T01830144
KBDL 200051Z 06006KT 10SM BKN018 OVC027 18/15 A3006 RMK AO2 SLP177 T01830150
KBDL 192351Z 08007KT 10SM FEW020 OVC026 19/16 A3002 RMK AO2 SLP165 T01940156 10256 20194 51019
KBDL 192251Z 11007KT 10SM BKN023 OVC041 21/17 A2999 RMK AO2 SLP155 T02060167
KBDL 192246Z 11006KT 10SM BKN023 OVC041 21/16 A2999 RMK AO2
KBDL 192151Z 12008KT 10SM SCT033 22/17 A2996 RMK AO2 SLP145 T02220167
KBDL 192051Z 01006KT 10SM SCT046 BKN200 24/16 A2994 RMK AO2 SLP137 T02440161 53004
KBDL 191951Z COR 10SM SCT037 SCT044 BKN150 24/17 A2992 RMK AO2 SLP130 T02440167
KBDL 191851Z 06004KT 10SM SCT032 SCT045 BKN250 24/16 A2992 RMK AO2 SLP132 T02440161
KBDL 191751Z 04009KT 10SM FEW036 SCT050 BKN250 25/16 A2993 RMK AO2 SLP133 T02500161 10256 20200 56000
KBDL 191651Z 03010KT 10SM FEW028 SCT048 BKN220 24/16 A2993 RMK AO2 SLP133 T02440156
KBDL 191551Z 02007KT 10SM FEW028 SCT042 BKN220 24/18 A2992 RMK AO2 SLP131 T02440178
KBDL 191451Z 36008KT 10SM FEW015 SCT025 BKN250 23/18 A2993 RMK AO2 SLP134 T02280183 53019
KBDL 191420Z 01008KT 10SM BKN016 BKN021 BKN250 23/18 A2992 RMK AO2 T02280183
KBDL 191356Z 04008KT 10SM BKN014 BKN250 23/18 A2991 RMK AO2 T02280183
KBDL 191351Z 03008KT 10SM SCT014 BKN250 23/19 A2991 RMK AO2 SLP126 T02280189
KBDL 191251Z 34007KT 10SM FEW015 SCT250 21/19 A2989 RMK AO2 SLP121 T02110189
KBDL 191151Z 01006KT 10SM SCT250 20/18 A2987 RMK AO2 SLP115 70076 T02000183 10200 20178 51019
KBDL 191051Z 36006KT 10SM FEW055 SCT250 19/18 A2986 RMK AO2 SLP109 T01890178
KBDL 190951Z 01004KT 10SM SCT050 SCT250 19/18 A2984 RMK AO2 SLP104 T01890178
KBDL 190851Z 34006KT 10SM CLR 19/18 A2982 RMK AO2 SLP096 T01890183 53008
KBDL 190751Z 03003KT 10SM BCFG CLR 18/18 A2980 RMK AO2 SLP090 BCFG NE-E T01830178
KBDL 190651Z 35004KT 10SM CLR 19/18 A2979 RMK AO2 SLP086 T01890183
KBDL 190551Z 03005KT 10SM CLR 18/18 A2979 RMK AO2 SLP087 T01830178 10222 20183 53005
KBDL 190451Z 00000KT 10SM CLR 18/18 A2977 RMK AO2 SLP080 T01830183 402500183
KBDL 190351Z 31003KT 10SM CLR 19/19 A2977 RMK AO2 SLP081 T01890189
KBDL 190251Z 00000KT 10SM CLR 21/20 A2978 RMK AO2 SLP082 T02060200 51002
KBDL 190151Z 26004KT 10SM CLR 21/19 A2977 RMK AO2 SLP080 T02060194
KBDL 190051Z 26004KT 10SM FEW200 21/20 A2978 RMK AO2 SLP082 T02110200
KBDL 182351Z 22004KT 10SM FEW200 22/21 A2977 RMK AO2 SLP079 60001 T02220206 10250 20217 53006
KBDL 182251Z 27003KT 10SM FEW070 FEW200 23/21 A2976 RMK AO2 SLP075 T02330206
KBDL 182151Z 00000KT 10SM FEW060 SCT200 24/20 A2975 RMK AO2 SLP071 T02440200